Upstream stations:
Downstream station:
SHEF ID: BRIO2 Canadian River at Bridgeport, OK
STATION TYPE:
Regulating: Stage = 15.00, Flow = 8545
STAGE RIV-FLOW
ft cfs
Ccp-Rev Ccp-Rev
(US/Central)
05/23 00:00 12.57 2146
05/23 01:00 12.54 2103
05/23 02:00 12.53 2089
05/23 03:00 12.50 2046
05/23 04:00 12.49 2032
05/23 05:00 12.47 2004
05/23 06:00 12.46 1990
05/23 07:00 12.51 2060
05/23 08:00 12.47 2004
05/23 09:00 12.53 2089
05/23 10:00 12.54 2103
05/23 11:00 12.64 2250
05/23 12:00 13.00 2838
05/23 13:00 13.03 2891
05/23 14:00 12.93 2716
05/23 15:00 12.77 2451
05/23 16:00 12.68 2311
05/23 17:00 12.62 2220
05/23 18:00 12.67 2295
05/23 19:00 12.67 2295
05/23 20:00 9.93 150
05/23 21:00 ---- ----
05/23 22:00 ---- ----
05/23 23:00 ---- ----